sensor_id;sensor_type;location;lat;lon;timestamp;pressure;altitude;pressure_sealevel;temperature;humidity
35704;BME280;21820;51.112;13.762;2023-03-15T00:01:52;98685.22;;;22.40;56.78
35704;BME280;21820;51.112;13.762;2023-03-15T00:04:18;98683.78;;;22.37;56.74
35704;BME280;21820;51.112;13.762;2023-03-15T00:06:44;98685.06;;;22.41;57.42
35704;BME280;21820;51.112;13.762;2023-03-15T00:09:09;98685.06;;;22.41;57.92
35704;BME280;21820;51.112;13.762;2023-03-15T00:11:35;98688.69;;;22.40;57.49
35704;BME280;21820;51.112;13.762;2023-03-15T00:14:01;98690.31;;;22.41;56.28
35704;BME280;21820;51.112;13.762;2023-03-15T00:16:26;98688.34;;;22.35;56.95
35704;BME280;21820;51.112;13.762;2023-03-15T00:18:53;98694.41;;;22.36;57.21
35704;BME280;21820;51.112;13.762;2023-03-15T00:21:18;98699.00;;;22.34;56.40
35704;BME280;21820;51.112;13.762;2023-03-15T00:23:44;98701.97;;;22.31;57.56
35704;BME280;21820;51.112;13.762;2023-03-15T00:26:10;98700.31;;;22.30;56.85
35704;BME280;21820;51.112;13.762;2023-03-15T00:28:36;98714.56;;;22.27;57.46
35704;BME280;21820;51.112;13.762;2023-03-15T00:33:31;98712.44;;;22.23;57.32
35704;BME280;21820;51.112;13.762;2023-03-15T00:36:01;98715.06;;;22.23;57.28
35704;BME280;21820;51.112;13.762;2023-03-15T00:38:27;98719.97;;;22.26;58.33
35704;BME280;21820;51.112;13.762;2023-03-15T00:40:53;98720.59;;;22.20;57.05
35704;BME280;21820;51.112;13.762;2023-03-15T00:43:18;98722.09;;;22.22;57.77
35704;BME280;21820;51.112;13.762;2023-03-15T00:45:43;98729.59;;;22.25;57.78
35704;BME280;21820;51.112;13.762;2023-03-15T00:48:09;98736.97;;;22.22;57.62
35704;BME280;21820;51.112;13.762;2023-03-15T00:50:35;98721.94;;;22.08;57.31
35704;BME280;21820;51.112;13.762;2023-03-15T00:53:00;98743.38;;;22.19;57.25
35704;BME280;21820;51.112;13.762;2023-03-15T00:55:26;98736.66;;;22.17;57.25
35704;BME280;21820;51.112;13.762;2023-03-15T00:57:51;98741.25;;;22.15;57.69
35704;BME280;21820;51.112;13.762;2023-03-15T01:00:19;98744.34;;;22.18;57.50
35704;BME280;21820;51.112;13.762;2023-03-15T01:02:47;98746.31;;;22.16;57.45
35704;BME280;21820;51.112;13.762;2023-03-15T01:05:13;98751.38;;;22.18;58.01
35704;BME280;21820;51.112;13.762;2023-03-15T01:07:38;98753.34;;;22.16;58.19
35704;BME280;21820;51.112;13.762;2023-03-15T01:10:05;98754.34;;;22.15;57.45
35704;BME280;21820;51.112;13.762;2023-03-15T01:12:32;98752.69;;;22.14;57.22
35704;BME280;21820;51.112;13.762;2023-03-15T01:14:59;98753.84;;;22.11;57.02
35704;BME280;21820;51.112;13.762;2023-03-15T01:17:25;98754.81;;;22.10;57.63
35704;BME280;21820;51.112;13.762;2023-03-15T01:19:50;98764.16;;;22.13;57.74
35704;BME280;21820;51.112;13.762;2023-03-15T01:22:17;98769.06;;;22.16;58.52
35704;BME280;21820;51.112;13.762;2023-03-15T01:24:42;98763.50;;;22.19;60.35
35704;BME280;21820;51.112;13.762;2023-03-15T01:27:08;98773.28;;;22.17;58.67
35704;BME280;21820;51.112;13.762;2023-03-15T01:29:33;98756.31;;;22.05;58.26
35704;BME280;21820;51.112;13.762;2023-03-15T01:31:59;98774.28;;;22.16;57.86
35704;BME280;21820;51.112;13.762;2023-03-15T01:34:24;98773.28;;;22.17;58.23
35704;BME280;21820;51.112;13.762;2023-03-15T01:36:50;98779.53;;;22.16;58.33
35704;BME280;21820;51.112;13.762;2023-03-15T01:39:19;98773.28;;;22.17;57.30
35704;BME280;21820;51.112;13.762;2023-03-15T01:41:44;98768.06;;;22.17;57.98
35704;BME280;21820;51.112;13.762;2023-03-15T01:44:14;98775.28;;;22.15;58.59
35704;BME280;21820;51.112;13.762;2023-03-15T01:46:40;98771.66;;;22.16;57.93
35704;BME280;21820;51.112;13.762;2023-03-15T01:49:16;98780.19;;;22.18;59.60
35704;BME280;21820;51.112;13.762;2023-03-15T01:51:57;98778.53;;;22.17;59.37
35704;BME280;21820;51.112;13.762;2023-03-15T01:54:30;98777.56;;;22.18;58.85
35704;BME280;21820;51.112;13.762;2023-03-15T01:57:11;98776.91;;;22.16;59.64
35704;BME280;21820;51.112;13.762;2023-03-15T01:59:51;98773.28;;;22.17;58.92
35704;BME280;21820;51.112;13.762;2023-03-15T02:02:21;98773.63;;;22.14;57.92
35704;BME280;21820;51.112;13.762;2023-03-15T02:04:55;98780.19;;;22.18;58.79
35704;BME280;21820;51.112;13.762;2023-03-15T02:07:23;98785.44;;;22.18;58.05
35704;BME280;21820;51.112;13.762;2023-03-15T02:10:00;98775.91;;;22.17;59.63
35704;BME280;21820;51.112;13.762;2023-03-15T02:12:29;98776.91;;;22.16;59.14
35704;BME280;21820;51.112;13.762;2023-03-15T02:14:57;98783.78;;;22.17;58.17
35704;BME280;21820;51.112;13.762;2023-03-15T02:17:28;98781.16;;;22.17;58.36
35704;BME280;21820;51.112;13.762;2023-03-15T02:22:46;98785.44;;;22.18;57.85
35704;BME280;21820;51.112;13.762;2023-03-15T02:27:49;98785.44;;;22.18;58.34
35704;BME280;21820;51.112;13.762;2023-03-15T02:30:15;98792.28;;;22.19;59.64
35704;BME280;21820;51.112;13.762;2023-03-15T02:32:41;98791.63;;;22.17;58.61
35704;BME280;21820;51.112;13.762;2023-03-15T02:35:06;98791.78;;;22.15;57.83
35704;BME280;21820;51.112;13.762;2023-03-15T02:37:32;98796.84;;;22.17;58.78
35704;BME280;21820;51.112;13.762;2023-03-15T02:39:57;98799.81;;;22.14;58.55
35704;BME280;21820;51.112;13.762;2023-03-15T02:42:22;98806.38;;;22.18;58.57
35704;BME280;21820;51.112;13.762;2023-03-15T02:44:49;98803.91;;;22.16;58.80
35704;BME280;21820;51.112;13.762;2023-03-15T02:47:22;98809.78;;;22.18;58.76
35704;BME280;21820;51.112;13.762;2023-03-15T02:49:50;98811.28;;;22.21;57.63
35704;BME280;21820;51.112;13.762;2023-03-15T02:52:16;98820.91;;;22.20;58.46
35704;BME280;21820;51.112;13.762;2023-03-15T02:54:42;98814.84;;;22.20;58.53
35704;BME280;21820;51.112;13.762;2023-03-15T02:57:09;98816.50;;;22.21;58.22
35704;BME280;21820;51.112;13.762;2023-03-15T02:59:35;98810.63;;;22.19;58.33
35704;BME280;21820;51.112;13.762;2023-03-15T03:02:01;98821.41;;;22.24;57.42
35704;BME280;21820;51.112;13.762;2023-03-15T03:04:27;98812.22;;;22.12;57.98
35704;BME280;21820;51.112;13.762;2023-03-15T03:06:52;98817.34;;;22.21;58.11
35704;BME280;21820;51.112;13.762;2023-03-15T03:09:17;98824.19;;;22.22;58.06
35704;BME280;21820;51.112;13.762;2023-03-15T03:11:43;98833.06;;;22.21;58.95
35704;BME280;21820;51.112;13.762;2023-03-15T03:14:08;98833.34;;;22.18;58.03
35704;BME280;21820;51.112;13.762;2023-03-15T03:16:34;98835.16;;;22.18;57.97
35704;BME280;21820;51.112;13.762;2023-03-15T03:19:00;98841.03;;;22.20;58.64
35704;BME280;21820;51.112;13.762;2023-03-15T03:21:25;98839.56;;;22.17;58.39
35704;BME280;21820;51.112;13.762;2023-03-15T03:23:51;98851.50;;;22.20;58.98
35704;BME280;21820;51.112;13.762;2023-03-15T03:26:17;98855.13;;;22.19;57.89
35704;BME280;21820;51.112;13.762;2023-03-15T03:28:46;98858.41;;;22.21;59.22
35704;BME280;21820;51.112;13.762;2023-03-15T03:31:20;98854.78;;;22.22;58.85
35704;BME280;21820;51.112;13.762;2023-03-15T03:33:46;98861.34;;;22.26;57.39
35704;BME280;21820;51.112;13.762;2023-03-15T03:36:11;98862.19;;;22.26;58.66
35704;BME280;21820;51.112;13.762;2023-03-15T03:38:42;98873.97;;;22.30;57.76
35704;BME280;21820;51.112;13.762;2023-03-15T03:41:08;98875.75;;;22.30;57.74
35704;BME280;21820;51.112;13.762;2023-03-15T03:43:35;98876.41;;;22.32;57.93
35704;BME280;21820;51.112;13.762;2023-03-15T03:46:00;98883.59;;;22.30;57.78
35704;BME280;21820;51.112;13.762;2023-03-15T03:48:26;98885.09;;;22.24;58.36
35704;BME280;21820;51.112;13.762;2023-03-15T03:50:51;98886.72;;;22.25;58.04
35704;BME280;21820;51.112;13.762;2023-03-15T03:53:17;98891.13;;;22.25;58.83
35704;BME280;21820;51.112;13.762;2023-03-15T03:55:42;98895.56;;;22.24;58.47
35704;BME280;21820;51.112;13.762;2023-03-15T03:58:08;98899.97;;;22.24;58.11
35704;BME280;21820;51.112;13.762;2023-03-15T04:00:34;98898.19;;;22.24;58.46
35704;BME280;21820;51.112;13.762;2023-03-15T04:03:00;98897.50;;;22.22;58.05
35704;BME280;21820;51.112;13.762;2023-03-15T04:05:26;98902.59;;;22.24;58.58
35704;BME280;21820;51.112;13.762;2023-03-15T04:07:52;98896.34;;;22.25;58.26
35704;BME280;21820;51.112;13.762;2023-03-15T04:10:18;98904.88;;;22.27;57.27
35704;BME280;21820;51.112;13.762;2023-03-15T04:12:43;98904.38;;;22.23;58.49
35704;BME280;21820;51.112;13.762;2023-03-15T04:15:10;98907.66;;;22.25;58.88
35704;BME280;21820;51.112;13.762;2023-03-15T04:17:38;98917.31;;;22.25;58.59
35704;BME280;21820;51.112;13.762;2023-03-15T04:20:04;98915.69;;;22.24;57.93
35704;BME280;21820;51.112;13.762;2023-03-15T04:22:32;98918.97;;;22.26;58.19
35704;BME280;21820;51.112;13.762;2023-03-15T04:24:59;98931.38;;;22.24;58.03
35704;BME280;21820;51.112;13.762;2023-03-15T04:27:26;98932.38;;;22.23;58.47
35704;BME280;21820;51.112;13.762;2023-03-15T04:29:52;98938.56;;;22.22;58.24
35704;BME280;21820;51.112;13.762;2023-03-15T04:32:17;98946.28;;;22.23;57.80
35704;BME280;21820;51.112;13.762;2023-03-15T04:34:43;98941.50;;;22.11;56.88
35704;BME280;21820;51.112;13.762;2023-03-15T04:37:08;98945.88;;;22.02;57.21
35704;BME280;21820;51.112;13.762;2023-03-15T04:39:33;98948.50;;;22.02;57.06
35704;BME280;21820;51.112;13.762;2023-03-15T04:41:59;98938.84;;;22.03;56.95
35704;BME280;21820;51.112;13.762;2023-03-15T04:44:24;98958.28;;;22.50;55.70
35704;BME280;21820;51.112;13.762;2023-03-15T04:46:51;98957.88;;;22.78;55.00
35704;BME280;21820;51.112;13.762;2023-03-15T04:49:16;98960.34;;;23.12;53.56
35704;BME280;21820;51.112;13.762;2023-03-15T04:51:42;98968.88;;;23.38;52.69
35704;BME280;21820;51.112;13.762;2023-03-15T04:54:07;98967.84;;;23.55;52.38
35704;BME280;21820;51.112;13.762;2023-03-15T04:56:33;98975.06;;;23.69;51.87
35704;BME280;21820;51.112;13.762;2023-03-15T04:59:00;98979.09;;;23.88;51.54
35704;BME280;21820;51.112;13.762;2023-03-15T05:01:30;98969.72;;;23.93;51.22
35704;BME280;21820;51.112;13.762;2023-03-15T05:03:56;98980.22;;;23.93;51.26
35704;BME280;21820;51.112;13.762;2023-03-15T05:06:23;98973.00;;;24.03;50.92
35704;BME280;21820;51.112;13.762;2023-03-15T05:08:48;98965.47;;;24.00;50.57
35704;BME280;21820;51.112;13.762;2023-03-15T05:11:14;98987.09;;;24.10;50.33
35704;BME280;21820;51.112;13.762;2023-03-15T05:13:39;98983.44;;;24.19;50.87
35704;BME280;21820;51.112;13.762;2023-03-15T05:16:05;98989.53;;;24.12;47.98
35704;BME280;21820;51.112;13.762;2023-03-15T05:18:30;99004.78;;;24.16;48.82
35704;BME280;21820;51.112;13.762;2023-03-15T05:20:56;99005.41;;;24.26;49.44
35704;BME280;21820;51.112;13.762;2023-03-15T05:23:22;99010.50;;;24.20;48.94
35704;BME280;21820;51.112;13.762;2023-03-15T05:25:48;98997.41;;;24.12;49.47
35704;BME280;21820;51.112;13.762;2023-03-15T05:28:14;99020.34;;;24.26;49.52
35704;BME280;21820;51.112;13.762;2023-03-15T05:30:42;99006.69;;;24.30;49.11
35704;BME280;21820;51.112;13.762;2023-03-15T05:33:07;99023.78;;;24.34;49.32
35704;BME280;21820;51.112;13.762;2023-03-15T05:35:33;99032.28;;;24.36;49.69
35704;BME280;21820;51.112;13.762;2023-03-15T05:37:58;99031.66;;;24.34;49.57
35704;BME280;21820;51.112;13.762;2023-03-15T05:40:23;99037.88;;;24.33;49.41
35704;BME280;21820;51.112;13.762;2023-03-15T05:42:49;99045.25;;;24.38;49.88
35704;BME280;21820;51.112;13.762;2023-03-15T05:45:14;99050.50;;;24.46;49.38
35704;BME280;21820;51.112;13.762;2023-03-15T05:47:39;99045.06;;;24.48;49.46
35704;BME280;21820;51.112;13.762;2023-03-15T05:50:05;99052.13;;;24.47;49.43
35704;BME280;21820;51.112;13.762;2023-03-15T05:52:30;99057.53;;;24.45;49.26
35704;BME280;21820;51.112;13.762;2023-03-15T05:54:56;99067.72;;;24.48;49.46
35704;BME280;21820;51.112;13.762;2023-03-15T05:57:21;99065.28;;;24.39;49.95
35704;BME280;21820;51.112;13.762;2023-03-15T05:59:47;99075.97;;;24.37;49.78
35704;BME280;21820;51.112;13.762;2023-03-15T06:02:12;99078.28;;;24.32;49.98
35704;BME280;21820;51.112;13.762;2023-03-15T06:04:37;99077.19;;;24.19;49.98
35704;BME280;21820;51.112;13.762;2023-03-15T06:07:03;99084.25;;;24.10;50.06
35704;BME280;21820;51.112;13.762;2023-03-15T06:09:28;99086.91;;;23.94;50.66
35704;BME280;21820;51.112;13.762;2023-03-15T06:11:54;99071.66;;;23.74;50.77
35704;BME280;21820;51.112;13.762;2023-03-15T06:14:20;99089.38;;;23.72;51.20
35704;BME280;21820;51.112;13.762;2023-03-15T06:16:45;99089.22;;;23.65;51.55
35704;BME280;21820;51.112;13.762;2023-03-15T06:19:11;99092.16;;;23.62;51.84
35704;BME280;21820;51.112;13.762;2023-03-15T06:21:36;99092.16;;;23.62;52.26
35704;BME280;21820;51.112;13.762;2023-03-15T06:24:01;99090.53;;;23.61;51.51
35704;BME280;21820;51.112;13.762;2023-03-15T06:26:27;99098.75;;;23.66;51.89
35704;BME280;21820;51.112;13.762;2023-03-15T06:28:52;99107.59;;;23.73;51.27
35704;BME280;21820;51.112;13.762;2023-03-15T06:31:17;99111.03;;;23.82;51.56
35704;BME280;21820;51.112;13.762;2023-03-15T06:33:43;99114.78;;;23.87;51.32
35704;BME280;21820;51.112;13.762;2023-03-15T06:36:09;99123.16;;;23.91;51.02
35704;BME280;21820;51.112;13.762;2023-03-15T06:38:34;99115.47;;;23.89;50.92
35704;BME280;21820;51.112;13.762;2023-03-15T06:40:59;99118.75;;;23.99;51.30
35704;BME280;21820;51.112;13.762;2023-03-15T06:43:25;99119.09;;;24.04;50.51
35704;BME280;21820;51.112;13.762;2023-03-15T06:45:51;99132.19;;;24.12;50.67
35704;BME280;21820;51.112;13.762;2023-03-15T06:48:18;99128.88;;;24.18;50.90
35704;BME280;21820;51.112;13.762;2023-03-15T06:50:43;99111.34;;;24.11;50.21
35704;BME280;21820;51.112;13.762;2023-03-15T06:53:09;99134.44;;;24.31;50.57
35704;BME280;21820;51.112;13.762;2023-03-15T06:55:34;99139.06;;;24.29;50.57
35704;BME280;21820;51.112;13.762;2023-03-15T06:57:59;99142.28;;;24.39;50.39
35704;BME280;21820;51.112;13.762;2023-03-15T07:00:25;99141.63;;;24.45;49.81
35704;BME280;21820;51.112;13.762;2023-03-15T07:02:50;99147.88;;;24.44;49.61
35704;BME280;21820;51.112;13.762;2023-03-15T07:05:15;99142.28;;;24.39;49.53
35704;BME280;21820;51.112;13.762;2023-03-15T07:07:41;99150.53;;;24.28;50.52
35704;BME280;21820;51.112;13.762;2023-03-15T07:10:06;99150.88;;;24.25;50.25
35704;BME280;21820;51.112;13.762;2023-03-15T07:12:32;99151.56;;;24.19;50.56
35704;BME280;21820;51.112;13.762;2023-03-15T07:14:57;99133.16;;;23.95;51.07
35704;BME280;21820;51.112;13.762;2023-03-15T07:17:23;99145.00;;;23.91;51.40
35704;BME280;21820;51.112;13.762;2023-03-15T07:19:48;99138.44;;;23.79;51.51
35704;BME280;21820;51.112;13.762;2023-03-15T07:22:14;99151.91;;;23.68;51.48
35704;BME280;21820;51.112;13.762;2023-03-15T07:24:39;99133.03;;;23.57;52.23
35704;BME280;21820;51.112;13.762;2023-03-15T07:27:05;99147.63;;;23.59;52.16
35704;BME280;21820;51.112;13.762;2023-03-15T07:29:30;99147.28;;;23.62;52.21
35704;BME280;21820;51.112;13.762;2023-03-15T07:31:56;99152.88;;;23.67;51.78
35704;BME280;21820;51.112;13.762;2023-03-15T07:34:21;99149.28;;;23.68;51.79
35704;BME280;21820;51.112;13.762;2023-03-15T07:36:46;99155.47;;;23.75;52.23
35704;BME280;21820;51.112;13.762;2023-03-15T07:39:12;99160.44;;;23.86;51.21
35704;BME280;21820;51.112;13.762;2023-03-15T07:41:37;99154.34;;;23.94;50.92
35704;BME280;21820;51.112;13.762;2023-03-15T07:44:03;99159.78;;;24.00;51.52
35704;BME280;21820;51.112;13.762;2023-03-15T07:46:28;99156.16;;;24.09;50.95
35704;BME280;21820;51.112;13.762;2023-03-15T07:48:54;99156.50;;;24.14;51.01
35704;BME280;21820;51.112;13.762;2023-03-15T07:51:19;99165.31;;;24.21;50.88
35704;BME280;21820;51.112;13.762;2023-03-15T07:53:45;99153.03;;;24.22;50.38
35704;BME280;21820;51.112;13.762;2023-03-15T07:56:10;99160.22;;;24.36;49.93
35704;BME280;21820;51.112;13.762;2023-03-15T07:58:35;99161.00;;;24.44;50.31
35704;BME280;21820;51.112;13.762;2023-03-15T08:01:01;99163.94;;;24.49;49.91
35704;BME280;21820;51.112;13.762;2023-03-15T08:03:26;99150.03;;;24.41;49.93
35704;BME280;21820;51.112;13.762;2023-03-15T08:05:52;99169.53;;;24.46;49.96
35704;BME280;21820;51.112;13.762;2023-03-15T08:08:18;99167.59;;;24.40;49.98
35704;BME280;21820;51.112;13.762;2023-03-15T08:10:43;99176.63;;;24.38;50.80
35704;BME280;21820;51.112;13.762;2023-03-15T08:13:09;99179.47;;;24.20;50.73
35704;BME280;21820;51.112;13.762;2023-03-15T08:15:35;99185.41;;;24.06;50.48
35704;BME280;21820;51.112;13.762;2023-03-15T08:18:00;99188.00;;;23.98;50.87
35704;BME280;21820;51.112;13.762;2023-03-15T08:20:27;99185.19;;;23.84;51.43
35704;BME280;21820;51.112;13.762;2023-03-15T08:22:53;99189.78;;;23.74;52.03
35704;BME280;21820;51.112;13.762;2023-03-15T08:25:21;99199.78;;;23.70;51.97
35704;BME280;21820;51.112;13.762;2023-03-15T08:27:48;99210.59;;;23.59;51.77
35704;BME280;21820;51.112;13.762;2023-03-15T08:30:14;99210.59;;;23.59;51.90
35704;BME280;21820;51.112;13.762;2023-03-15T08:32:41;99218.13;;;23.62;52.24
35704;BME280;21820;51.112;13.762;2023-03-15T08:35:08;99215.84;;;23.75;52.13
35704;BME280;21820;51.112;13.762;2023-03-15T08:37:34;99204.22;;;23.70;52.19
35704;BME280;21820;51.112;13.762;2023-03-15T08:39:59;99229.97;;;23.82;51.27
35704;BME280;21820;51.112;13.762;2023-03-15T08:42:35;99237.53;;;23.93;51.39
35704;BME280;21820;51.112;13.762;2023-03-15T08:45:02;99230.34;;;24.03;51.54
35704;BME280;21820;51.112;13.762;2023-03-15T08:47:28;99232.00;;;24.12;50.68
35704;BME280;21820;51.112;13.762;2023-03-15T08:49:53;99241.19;;;24.16;51.16
35704;BME280;21820;51.112;13.762;2023-03-15T08:52:19;99251.53;;;24.26;50.68
35704;BME280;21820;51.112;13.762;2023-03-15T08:54:45;99259.75;;;24.31;50.73
35704;BME280;21820;51.112;13.762;2023-03-15T08:57:11;99256.28;;;24.38;50.29
35704;BME280;21820;51.112;13.762;2023-03-15T08:59:39;99266.78;;;24.46;50.42
35704;BME280;21820;51.112;13.762;2023-03-15T09:02:05;99274.81;;;24.53;49.88
35704;BME280;21820;51.112;13.762;2023-03-15T09:04:32;99269.09;;;24.58;50.07
35704;BME280;21820;51.112;13.762;2023-03-15T09:06:57;99259.88;;;24.54;49.81
35704;BME280;21820;51.112;13.762;2023-03-15T09:09:23;99260.22;;;24.51;49.68
35704;BME280;21820;51.112;13.762;2023-03-15T09:11:48;99268.13;;;24.42;50.32
35704;BME280;21820;51.112;13.762;2023-03-15T09:14:14;99262.88;;;24.34;50.21
35704;BME280;21820;51.112;13.762;2023-03-15T09:16:39;99265.31;;;24.28;50.68
35704;BME280;21820;51.112;13.762;2023-03-15T09:19:04;99275.00;;;24.11;50.83
35704;BME280;21820;51.112;13.762;2023-03-15T09:21:30;99277.13;;;24.00;51.47
35704;BME280;21820;51.112;13.762;2023-03-15T09:23:55;99269.88;;;23.86;51.56
35704;BME280;21820;51.112;13.762;2023-03-15T09:26:21;99278.22;;;23.81;51.68
35704;BME280;21820;51.112;13.762;2023-03-15T09:28:47;99276.41;;;23.74;51.86
35704;BME280;21820;51.112;13.762;2023-03-15T09:31:12;99274.94;;;23.71;52.22
35704;BME280;21820;51.112;13.762;2023-03-15T09:33:38;99275.59;;;23.73;52.09
35704;BME280;21820;51.112;13.762;2023-03-15T09:36:03;99281.81;;;23.80;52.26
35704;BME280;21820;51.112;13.762;2023-03-15T09:38:29;99275.78;;;23.88;52.03
35704;BME280;21820;51.112;13.762;2023-03-15T09:40:56;99280.22;;;23.95;51.64
35704;BME280;21820;51.112;13.762;2023-03-15T09:51:13;99275.81;;;24.20;50.81
35704;BME280;21820;51.112;13.762;2023-03-15T09:53:41;99286.19;;;24.29;50.61
35704;BME280;21820;51.112;13.762;2023-03-15T09:56:22;99276.97;;;24.41;50.72
35704;BME280;21820;51.112;13.762;2023-03-15T09:58:51;99278.47;;;24.44;50.29
35704;BME280;21820;51.112;13.762;2023-03-15T10:01:21;99278.13;;;24.47;50.57
35704;BME280;21820;51.112;13.762;2023-03-15T10:03:51;99286.16;;;24.54;50.34
35704;BME280;21820;51.112;13.762;2023-03-15T10:06:36;99284.34;;;24.62;49.92
35704;BME280;21820;51.112;13.762;2023-03-15T10:09:10;99288.28;;;24.66;49.44
35704;BME280;21820;51.112;13.762;2023-03-15T10:12:11;99292.06;;;24.64;49.35
35704;BME280;21820;51.112;13.762;2023-03-15T10:20:30;99298.66;;;24.35;50.34
35704;BME280;21820;51.112;13.762;2023-03-15T10:23:09;99288.31;;;24.18;51.24
35704;BME280;21820;51.112;13.762;2023-03-15T10:25:39;99292.09;;;24.07;50.98
35704;BME280;21820;51.112;13.762;2023-03-15T10:30:50;99319.25;;;23.90;51.10
35704;BME280;21820;51.112;13.762;2023-03-15T10:35:44;99313.00;;;23.83;51.97
35704;BME280;21820;51.112;13.762;2023-03-15T10:38:20;99319.59;;;23.87;51.86
35704;BME280;21820;51.112;13.762;2023-03-15T10:45:42;99315.38;;;24.02;51.57
35704;BME280;21820;51.112;13.762;2023-03-15T10:48:10;99320.97;;;24.15;51.28
35704;BME280;21820;51.112;13.762;2023-03-15T10:50:37;99326.25;;;24.23;50.81
35704;BME280;21820;51.112;13.762;2023-03-15T10:53:09;99320.66;;;24.26;50.28
35704;BME280;21820;51.112;13.762;2023-03-15T10:55:41;99324.94;;;24.35;50.54
35704;BME280;21820;51.112;13.762;2023-03-15T10:58:28;99326.72;;;24.43;50.06
35704;BME280;21820;51.112;13.762;2023-03-15T11:03:24;99323.63;;;24.64;49.87
35704;BME280;21820;51.112;13.762;2023-03-15T11:05:52;99322.31;;;24.68;49.93
35704;BME280;21820;51.112;13.762;2023-03-15T11:08:20;99312.75;;;24.67;50.01
35704;BME280;21820;51.112;13.762;2023-03-15T11:10:54;99317.06;;;24.76;49.43
35704;BME280;21820;51.112;13.762;2023-03-15T11:13:23;99306.69;;;24.66;49.05
35704;BME280;21820;51.112;13.762;2023-03-15T11:16:01;99318.53;;;24.70;49.78
35704;BME280;21820;51.112;13.762;2023-03-15T11:18:41;99318.03;;;24.67;49.88
35704;BME280;21820;51.112;13.762;2023-03-15T11:21:12;99326.25;;;24.56;49.78
35704;BME280;21820;51.112;13.762;2023-03-15T11:23:41;99316.22;;;24.43;49.87
35704;BME280;21820;51.112;13.762;2023-03-15T11:26:19;99326.06;;;24.33;50.40
35704;BME280;21820;51.112;13.762;2023-03-15T11:28:49;99323.44;;;24.17;50.56
35704;BME280;21820;51.112;13.762;2023-03-15T11:31:21;99318.19;;;24.09;50.81
35704;BME280;21820;51.112;13.762;2023-03-15T11:33:55;99327.47;;;23.95;51.12
35704;BME280;21820;51.112;13.762;2023-03-15T11:36:25;99312.69;;;23.86;51.79
35704;BME280;21820;51.112;13.762;2023-03-15T11:38:53;99336.69;;;23.91;51.83
35704;BME280;21820;51.112;13.762;2023-03-15T11:41:33;99324.84;;;23.95;51.64
35704;BME280;21820;51.112;13.762;2023-03-15T11:44:11;99325.22;;;24.00;51.30
35704;BME280;21820;51.112;13.762;2023-03-15T11:46:46;99325.72;;;24.04;51.19
35704;BME280;21820;51.112;13.762;2023-03-15T11:49:22;99322.78;;;24.15;51.60
35704;BME280;21820;51.112;13.762;2023-03-15T11:51:54;99323.59;;;24.23;50.96
35704;BME280;21820;51.112;13.762;2023-03-15T11:54:20;99318.69;;;24.28;50.54
35704;BME280;21820;51.112;13.762;2023-03-15T11:56:52;99308.19;;;24.28;50.57
35704;BME280;21820;51.112;13.762;2023-03-15T11:59:36;99326.25;;;24.48;49.97
35704;BME280;21820;51.112;13.762;2023-03-15T12:04:56;99322.78;;;24.63;49.98
35704;BME280;21820;51.112;13.762;2023-03-15T12:07:23;99315.91;;;24.70;49.94
35704;BME280;21820;51.112;13.762;2023-03-15T12:22:29;99310.81;;;24.61;49.62
35704;BME280;21820;51.112;13.762;2023-03-15T12:24:58;99305.56;;;24.53;49.72
35704;BME280;21820;51.112;13.762;2023-03-15T12:27:28;99308.84;;;24.38;50.49
35704;BME280;21820;51.112;13.762;2023-03-15T12:29:58;99310.97;;;24.27;50.48
35704;BME280;21820;51.112;13.762;2023-03-15T12:32:26;99296.00;;;24.03;51.56
35704;BME280;21820;51.112;13.762;2023-03-15T12:34:57;99314.38;;;24.03;51.00
35704;BME280;21820;51.112;13.762;2023-03-15T12:37:48;99309.63;;;23.99;51.66
35704;BME280;21820;51.112;13.762;2023-03-15T12:56:39;99308.19;;;24.36;50.48
35704;BME280;21820;51.112;13.762;2023-03-15T12:59:19;99306.19;;;24.46;50.11
35704;BME280;21820;51.112;13.762;2023-03-15T13:01:47;99306.03;;;24.56;50.34
35704;BME280;21820;51.112;13.762;2023-03-15T13:04:13;99307.19;;;24.62;50.45
35704;BME280;21820;51.112;13.762;2023-03-15T13:06:48;99303.91;;;24.68;49.57
35704;BME280;21820;51.112;13.762;2023-03-15T13:09:45;99304.09;;;24.74;49.82
35704;BME280;21820;51.112;13.762;2023-03-15T13:12:19;99306.22;;;24.79;49.39
35704;BME280;21820;51.112;13.762;2023-03-15T13:15:22;99304.25;;;24.81;49.08
35704;BME280;21820;51.112;13.762;2023-03-15T13:17:54;99303.25;;;24.74;49.70
35704;BME280;21820;51.112;13.762;2023-03-15T13:25:30;99302.75;;;24.38;50.59
35704;BME280;21820;51.112;13.762;2023-03-15T13:33:39;99326.72;;;24.11;51.40
35704;BME280;21820;51.112;13.762;2023-03-15T13:36:18;99323.88;;;23.96;51.22
35704;BME280;21820;51.112;13.762;2023-03-15T13:38:51;99321.38;;;23.87;51.98
35704;BME280;21820;51.112;13.762;2023-03-15T13:43:46;99334.50;;;23.87;51.61
35704;BME280;21820;51.112;13.762;2023-03-15T13:46:13;99333.72;;;23.94;52.18
35704;BME280;21820;51.112;13.762;2023-03-15T13:48:41;99329.94;;;23.97;51.47
35704;BME280;21820;51.112;13.762;2023-03-15T13:51:20;99329.19;;;24.12;51.62
35704;BME280;21820;51.112;13.762;2023-03-15T13:53:53;99334.28;;;24.14;51.86
35704;BME280;21820;51.112;13.762;2023-03-15T13:56:27;99337.75;;;24.22;51.55
35704;BME280;21820;51.112;13.762;2023-03-15T13:58:53;99350.38;;;24.35;50.77
35704;BME280;21820;51.112;13.762;2023-03-15T14:01:19;99340.69;;;24.35;50.91
35704;BME280;21820;51.112;13.762;2023-03-15T14:03:53;99353.50;;;24.46;50.90
35704;BME280;21820;51.112;13.762;2023-03-15T14:06:23;99338.41;;;24.48;50.65
35704;BME280;21820;51.112;13.762;2023-03-15T14:08:52;99352.88;;;24.61;50.20
35704;BME280;21820;51.112;13.762;2023-03-15T14:13:55;99353.88;;;24.76;50.14
35704;BME280;21820;51.112;13.762;2023-03-15T14:16:39;99353.22;;;24.82;50.05